createdAt,value
2023-04-14T00:00:07.306Z,9.719549
2023-04-14T00:01:07.320Z,9.719549
2023-04-14T00:02:07.363Z,9.719549
2023-04-14T00:03:07.599Z,9.719549
2023-04-14T00:04:07.426Z,9.719549
2023-04-14T00:05:07.391Z,9.719549
2023-04-14T00:06:07.283Z,9.719549
2023-04-14T00:07:07.265Z,9.719549
2023-04-14T00:08:07.260Z,9.719549
2023-04-14T00:09:07.226Z,9.719549
2023-04-14T00:10:07.252Z,9.718971
2023-04-14T00:11:07.264Z,9.719100
2023-04-14T00:12:07.232Z,9.718843
2023-04-14T00:13:07.221Z,9.718887
2023-04-14T00:14:07.201Z,9.718963
2023-04-14T00:15:07.190Z,9.718723
2023-04-14T00:16:07.204Z,9.719055
2023-04-14T00:17:07.177Z,9.719113
2023-04-14T00:18:07.211Z,9.719148
2023-04-14T00:19:07.148Z,9.719230
2023-04-14T00:20:07.176Z,9.719158
2023-04-14T00:21:07.135Z,9.719131
2023-04-14T00:22:07.138Z,9.719252
2023-04-14T00:23:07.126Z,9.719338
2023-04-14T00:24:07.125Z,9.719178
2023-04-14T00:25:07.121Z,9.719328
2023-04-14T00:26:07.091Z,9.719244
2023-04-14T00:27:07.082Z,9.719257
2023-04-14T00:28:07.093Z,9.719080
2023-04-14T00:29:07.040Z,9.719247
2023-04-14T00:30:07.082Z,9.719192
2023-04-14T00:31:07.047Z,9.719085
2023-04-14T00:32:07.001Z,9.719054
2023-04-14T00:33:07.014Z,9.719222
2023-04-14T00:34:07.003Z,9.719263
2023-04-14T00:35:07.019Z,9.718781
2023-04-14T00:36:06.999Z,9.718840
2023-04-14T00:37:06.986Z,9.719054
2023-04-14T00:38:06.979Z,9.719227
2023-04-14T00:39:06.983Z,9.719420
2023-04-14T00:40:06.944Z,9.719316
2023-04-14T00:41:06.944Z,9.719134
2023-04-14T00:42:06.904Z,9.719157
2023-04-14T00:43:06.906Z,9.719188
2023-04-14T00:44:06.892Z,9.718966
2023-04-14T00:45:06.902Z,9.719124
2023-04-14T00:46:06.987Z,9.719184
2023-04-14T00:47:06.873Z,9.719228
2023-04-14T00:48:06.876Z,9.719177
2023-04-14T00:49:06.854Z,9.719175
2023-04-14T00:50:06.866Z,9.719162
2023-04-14T00:51:06.840Z,9.719288
2023-04-14T00:52:06.832Z,9.719236
2023-04-14T00:53:06.836Z,9.719392
2023-04-14T00:54:06.832Z,9.719106
2023-04-14T00:55:06.809Z,9.719208
2023-04-14T00:56:06.796Z,9.719213
2023-04-14T00:57:06.829Z,9.719307
2023-04-14T00:58:06.783Z,9.719108
2023-04-14T00:59:06.763Z,9.719134
2023-04-14T01:00:06.775Z,9.719094
2023-04-14T01:01:06.732Z,9.719111
2023-04-14T01:02:06.824Z,9.719038
2023-04-14T01:03:07.069Z,9.719015
2023-04-14T01:04:06.900Z,9.719029
2023-04-14T01:05:06.864Z,9.719144
2023-04-14T01:06:06.707Z,9.719209
2023-04-14T01:07:06.714Z,9.719242
2023-04-14T01:08:06.677Z,9.719194
2023-04-14T01:09:06.652Z,9.719136
2023-04-14T01:10:06.705Z,9.718996
2023-04-14T01:11:06.630Z,9.719080
2023-04-14T01:12:06.617Z,9.719035
2023-04-14T01:13:06.656Z,9.719159
2023-04-14T01:14:06.640Z,9.719075
2023-04-14T01:15:06.618Z,9.719082
2023-04-14T01:16:06.685Z,9.719130
2023-04-14T01:17:06.591Z,9.719249
2023-04-14T01:18:06.619Z,9.719099
2023-04-14T01:19:06.569Z,9.719157
2023-04-14T01:20:06.580Z,9.719132
2023-04-14T01:21:06.549Z,9.719125
2023-04-14T01:22:06.546Z,9.719097
2023-04-14T01:23:06.520Z,9.719001
2023-04-14T01:24:06.585Z,9.719133
2023-04-14T01:25:06.542Z,9.719246
2023-04-14T01:26:06.497Z,9.719257
2023-04-14T01:27:06.545Z,9.719299
2023-04-14T01:28:06.539Z,9.719061
2023-04-14T01:29:06.529Z,9.719448
2023-04-14T01:30:06.494Z,9.719489
2023-04-14T01:31:06.523Z,9.719242
2023-04-14T01:32:06.509Z,9.718891
2023-04-14T01:33:06.421Z,9.718934
2023-04-14T01:34:06.398Z,9.718679
2023-04-14T01:35:06.408Z,9.719036
2023-04-14T01:36:06.388Z,9.719006
2023-04-14T01:37:06.416Z,9.719183
2023-04-14T01:38:06.415Z,9.719048
2023-04-14T01:39:06.382Z,9.719085
2023-04-14T01:40:06.395Z,9.719182
2023-04-14T01:41:06.362Z,9.719074
2023-04-14T01:42:06.353Z,9.719144
2023-04-14T01:43:06.359Z,9.719068
2023-04-14T01:44:06.362Z,9.719044
2023-04-14T01:45:06.312Z,9.719279
2023-04-14T01:46:06.368Z,9.719594
2023-04-14T01:47:06.281Z,9.719366
2023-04-14T01:48:06.377Z,9.719128
2023-04-14T01:49:06.288Z,9.719041
2023-04-14T01:50:06.277Z,9.718986
2023-04-14T01:51:06.260Z,9.718933
2023-04-14T01:52:06.249Z,9.718941
2023-04-14T01:53:06.255Z,9.719036
2023-04-14T01:54:06.267Z,9.719026
2023-04-14T01:55:06.215Z,9.718969
2023-04-14T01:56:06.215Z,9.719091
2023-04-14T01:57:06.207Z,9.718976
2023-04-14T01:58:06.207Z,9.718926
2023-04-14T01:59:06.202Z,9.719006
2023-04-14T02:00:06.198Z,9.719033
2023-04-14T02:01:06.249Z,9.719054
2023-04-14T02:02:06.226Z,9.719000
2023-04-14T02:03:06.245Z,9.719094
2023-04-14T02:04:06.273Z,9.719097
2023-04-14T02:05:06.146Z,9.719059
2023-04-14T02:06:06.128Z,9.719038
2023-04-14T02:07:06.144Z,9.719048
2023-04-14T02:08:06.081Z,9.718956
2023-04-14T02:09:06.110Z,9.719022
2023-04-14T02:10:06.101Z,9.719069
2023-04-14T02:11:06.064Z,9.719150
2023-04-14T02:12:06.035Z,9.719116
2023-04-14T02:13:06.078Z,9.719084
2023-04-14T02:14:06.029Z,9.719073
2023-04-14T02:15:06.035Z,9.719042
2023-04-14T02:16:06.074Z,9.719055
2023-04-14T02:17:06.039Z,9.719213
2023-04-14T02:18:05.982Z,9.719274
2023-04-14T02:19:06.065Z,9.719114
2023-04-14T02:20:05.968Z,9.719139
2023-04-14T02:21:05.986Z,9.719131
2023-04-14T02:22:05.957Z,9.719172
2023-04-14T02:23:05.957Z,9.719110
2023-04-14T02:24:05.990Z,9.719043
2023-04-14T02:25:05.937Z,9.719000
2023-04-14T02:26:05.968Z,9.719083
2023-04-14T02:27:05.897Z,9.719151
2023-04-14T02:28:05.919Z,9.719075
2023-04-14T02:29:05.871Z,9.719201
2023-04-14T02:30:05.944Z,9.719088
2023-04-14T02:31:05.922Z,9.719234
2023-04-14T02:32:05.954Z,9.719393
2023-04-14T02:33:05.901Z,9.719296
2023-04-14T02:34:05.842Z,9.719267
2023-04-14T02:35:05.829Z,9.719433
2023-04-14T02:36:05.850Z,9.719355
2023-04-14T02:37:05.804Z,9.719255
2023-04-14T02:38:05.796Z,9.719419
2023-04-14T02:39:37.719Z,9.719293
2023-04-14T02:40:05.799Z,9.719396
2023-04-14T02:41:05.761Z,9.719340
2023-04-14T02:42:05.782Z,9.719337
2023-04-14T02:43:05.760Z,9.719136
2023-04-14T02:44:06.764Z,9.719093
2023-04-14T02:45:05.797Z,9.719202
2023-04-14T02:46:05.789Z,9.719168
2023-04-14T02:47:05.735Z,9.719293
2023-04-14T02:48:05.704Z,9.719136
2023-04-14T02:49:05.726Z,9.719010
2023-04-14T02:50:05.739Z,9.719127
2023-04-14T02:51:05.743Z,9.719183
2023-04-14T02:52:05.680Z,9.719200
2023-04-14T02:53:05.683Z,9.719159
2023-04-14T02:54:05.633Z,9.719183
2023-04-14T02:55:06.664Z,9.719253
2023-04-14T02:56:05.661Z,9.719320
2023-04-14T02:57:05.642Z,9.719302
2023-04-14T02:58:05.675Z,9.719316
2023-04-14T02:59:05.635Z,9.719288
2023-04-14T03:00:05.622Z,9.719275
2023-04-14T03:01:05.611Z,9.719253
2023-04-14T03:02:05.641Z,9.719241
2023-04-14T03:03:05.658Z,9.719234
2023-04-14T03:04:05.725Z,9.719345
2023-04-14T03:05:05.559Z,9.719349
2023-04-14T03:06:05.596Z,9.719303
2023-04-14T03:07:05.551Z,9.719275
2023-04-14T03:08:05.541Z,9.719245
2023-04-14T03:09:05.506Z,9.719236
2023-04-14T03:10:05.546Z,9.719301
2023-04-14T03:11:05.516Z,9.719349
2023-04-14T03:12:05.481Z,9.719317
2023-04-14T03:13:05.479Z,9.719364
2023-04-14T03:14:05.486Z,9.719345
2023-04-14T03:15:05.492Z,9.719254
2023-04-14T03:16:05.488Z,9.719213
2023-04-14T03:17:05.444Z,9.719284
2023-04-14T03:18:05.508Z,9.719313
2023-04-14T03:19:05.455Z,9.719299
2023-04-14T03:20:05.419Z,9.719282
2023-04-14T03:21:05.396Z,9.719260
2023-04-14T03:22:05.404Z,9.719250
2023-04-14T03:23:05.601Z,9.719280
2023-04-14T03:24:05.396Z,9.719271
2023-04-14T03:25:05.358Z,9.719214
2023-04-14T03:26:05.349Z,9.719254
2023-04-14T03:27:05.362Z,9.719254
2023-04-14T03:28:05.301Z,9.719235
2023-04-14T03:29:05.329Z,9.719228
2023-04-14T03:30:05.409Z,9.719156
2023-04-14T03:31:05.427Z,9.719115
2023-04-14T03:32:05.296Z,9.719238
2023-04-14T03:33:05.300Z,9.719086
2023-04-14T03:34:06.271Z,9.719087
2023-04-14T03:35:05.275Z,9.719015
2023-04-14T03:36:05.247Z,9.719052
2023-04-14T03:37:05.304Z,9.719101
2023-04-14T03:38:06.219Z,9.719183
2023-04-14T03:39:05.247Z,9.719147
2023-04-14T03:40:05.200Z,9.719067
2023-04-14T03:41:05.198Z,9.719026
2023-04-14T03:42:05.198Z,9.719067
2023-04-14T03:43:05.263Z,9.719069
2023-04-14T03:44:05.212Z,9.719069
2023-04-14T03:45:05.165Z,9.718978
2023-04-14T03:46:05.184Z,9.718920
2023-04-14T03:47:05.205Z,9.718768
2023-04-14T03:48:05.246Z,9.718980
2023-04-14T03:49:05.120Z,9.719040
2023-04-14T03:50:05.117Z,9.718980
2023-04-14T03:51:05.129Z,9.718926
2023-04-14T03:52:05.088Z,9.718914
2023-04-14T03:53:05.126Z,9.719224
2023-04-14T03:54:05.083Z,9.719196
2023-04-14T03:55:05.078Z,9.719124
2023-04-14T03:56:05.081Z,9.719106
2023-04-14T03:57:05.064Z,9.719049
2023-04-14T03:58:05.054Z,9.719098
2023-04-14T03:59:05.043Z,9.719182
2023-04-14T04:00:05.027Z,9.719297
2023-04-14T04:01:05.009Z,9.719243
2023-04-14T04:02:05.083Z,9.719191
2023-04-14T04:03:05.232Z,9.719185
2023-04-14T04:04:05.060Z,9.718974
2023-04-14T04:05:05.113Z,9.719221
2023-04-14T04:06:05.022Z,9.719195
2023-04-14T04:07:05.002Z,9.719108
2023-04-14T04:08:05.009Z,9.719173
2023-04-14T04:09:04.931Z,9.719208
2023-04-14T04:10:04.948Z,9.719193
2023-04-14T04:11:04.946Z,9.719337
2023-04-14T04:12:04.922Z,9.719259
2023-04-14T04:13:04.884Z,9.719289
2023-04-14T04:14:04.936Z,9.719170
2023-04-14T04:15:04.922Z,9.719129
2023-04-14T04:16:04.937Z,9.719177
2023-04-14T04:17:04.878Z,9.719277
2023-04-14T04:18:04.847Z,9.719189
2023-04-14T04:19:04.826Z,9.719042
2023-04-14T04:20:06.828Z,9.719066
2023-04-14T04:21:04.824Z,9.719213
2023-04-14T04:22:04.800Z,9.719189
2023-04-14T04:23:04.794Z,9.719285
2023-04-14T04:24:04.827Z,9.719276
2023-04-14T04:25:04.755Z,9.719315
2023-04-14T04:26:04.787Z,9.719304
2023-04-14T04:27:06.489Z,9.719228
2023-04-14T04:28:04.751Z,9.719311
2023-04-14T04:29:04.756Z,9.719188
2023-04-14T04:30:04.732Z,9.719244
2023-04-14T04:31:04.715Z,9.719247
2023-04-14T04:32:04.755Z,9.719256
2023-04-14T04:33:04.718Z,9.719191
2023-04-14T04:34:04.733Z,9.719390
2023-04-14T04:35:04.665Z,9.719179
2023-04-14T04:36:04.667Z,9.719149
2023-04-14T04:37:04.682Z,9.719267
2023-04-14T04:38:04.640Z,9.719249
2023-04-14T04:39:04.673Z,9.719284
2023-04-14T04:40:04.645Z,9.719395
2023-04-14T04:41:04.605Z,9.719368
2023-04-14T04:42:04.595Z,9.719409
2023-04-14T04:43:04.575Z,9.719466
2023-04-14T04:44:04.622Z,9.719419
2023-04-14T04:45:04.555Z,9.719465
2023-04-14T04:46:04.602Z,9.719273
2023-04-14T04:47:04.574Z,9.719325
2023-04-14T04:48:04.623Z,9.719356
2023-04-14T04:49:04.529Z,9.719393
2023-04-14T04:50:04.523Z,9.719409
2023-04-14T04:51:04.519Z,9.719406
2023-04-14T04:52:04.506Z,9.719343
2023-04-14T04:53:04.527Z,9.719353
2023-04-14T04:54:04.491Z,9.719399
2023-04-14T04:55:04.502Z,9.719375
2023-04-14T04:56:04.511Z,9.719371
2023-04-14T04:57:04.788Z,9.719318
2023-04-14T04:58:04.459Z,9.719236
2023-04-14T04:59:04.510Z,9.719202
2023-04-14T05:00:04.489Z,9.719205
2023-04-14T05:01:04.447Z,9.719215
2023-04-14T05:02:04.439Z,9.719257
2023-04-14T05:03:04.453Z,9.719253
2023-04-14T05:04:04.475Z,9.719080
2023-04-14T05:05:04.426Z,9.718998
2023-04-14T05:06:04.390Z,9.718966
2023-04-14T05:07:04.378Z,9.719009
2023-04-14T05:08:04.363Z,9.718950
2023-04-14T05:09:04.366Z,9.719047
2023-04-14T05:10:04.404Z,9.718964
2023-04-14T05:11:04.355Z,9.718984
2023-04-14T05:12:04.341Z,9.719049
2023-04-14T05:13:04.331Z,9.719205
2023-04-14T05:14:04.301Z,9.719052
2023-04-14T05:15:04.342Z,9.719064
2023-04-14T05:16:04.343Z,9.719180
2023-04-14T05:17:05.691Z,9.719176
2023-04-14T05:18:07.324Z,9.719411
2023-04-14T05:19:08.191Z,9.719059
2023-04-14T05:20:06.187Z,9.719033
2023-04-14T05:21:07.272Z,9.719034
2023-04-14T05:22:07.190Z,9.718991
2023-04-14T05:23:07.200Z,9.719188
2023-04-14T05:24:07.696Z,9.719254
2023-04-14T05:25:05.681Z,9.719187
2023-04-14T05:26:16.341Z,9.719117
2023-04-14T05:27:14.182Z,9.719010
2023-04-14T05:28:05.755Z,9.718672
2023-04-14T05:29:04.831Z,9.718744
2023-04-14T05:30:04.773Z,9.718440
2023-04-14T05:31:05.707Z,9.718701
2023-04-14T05:32:06.700Z,9.719131
2023-04-14T05:33:08.205Z,9.719179
2023-04-14T05:34:07.196Z,9.719021
2023-04-14T05:35:04.165Z,9.719313
2023-04-14T05:36:06.713Z,9.719022
2023-04-14T05:37:04.624Z,9.719008
2023-04-14T05:38:05.371Z,9.719141
2023-04-14T05:39:08.690Z,9.718940
2023-04-14T05:40:04.689Z,9.718936
2023-04-14T05:41:04.998Z,9.719122
2023-04-14T05:42:04.696Z,9.719198
2023-04-14T05:43:05.835Z,9.719016
2023-04-14T05:44:04.939Z,9.719145
2023-04-14T05:45:05.053Z,9.719180
2023-04-14T05:46:05.937Z,9.719185
2023-04-14T05:47:06.244Z,9.719238
2023-04-14T05:48:07.221Z,9.719270
2023-04-14T05:49:04.215Z,9.719181
2023-04-14T05:50:03.971Z,9.719137
2023-04-14T05:51:05.697Z,9.719161
2023-04-14T05:52:04.814Z,9.719157
2023-04-14T05:53:09.193Z,9.719110
2023-04-14T05:54:11.707Z,9.719260
2023-04-14T05:55:05.871Z,9.719185
2023-04-14T05:56:05.188Z,9.719171
2023-04-14T05:57:08.181Z,9.719185
2023-04-14T05:58:06.194Z,9.719172
2023-04-14T05:59:06.728Z,9.719173
2023-04-14T06:00:07.195Z,9.719202
2023-04-14T06:01:07.192Z,9.719275
2023-04-14T06:02:10.277Z,9.719239
2023-04-14T06:03:05.021Z,9.719183
2023-04-14T06:04:07.282Z,9.719074
2023-04-14T06:05:05.340Z,9.719191
2023-04-14T06:06:08.768Z,9.719187
2023-04-14T06:07:08.271Z,9.719220
2023-04-14T06:08:04.843Z,9.719236
2023-04-14T06:09:04.887Z,9.719196
2023-04-14T06:10:05.380Z,9.719080
2023-04-14T06:11:06.262Z,9.719042
2023-04-14T06:12:09.202Z,9.719086
2023-04-14T06:13:05.727Z,9.719112
2023-04-14T06:14:08.295Z,9.719285
2023-04-14T06:15:06.429Z,9.719321
2023-04-14T06:16:07.770Z,9.719319
2023-04-14T06:17:07.696Z,9.719098
2023-04-14T06:18:05.703Z,9.719118
2023-04-14T06:19:05.181Z,9.719072
2023-04-14T06:20:05.736Z,9.719066
2023-04-14T06:21:03.706Z,9.718975
2023-04-14T06:22:05.227Z,9.719136
2023-04-14T06:23:06.206Z,9.719071
2023-04-14T06:24:06.189Z,9.719123
2023-04-14T06:25:07.690Z,9.719097
2023-04-14T06:26:05.767Z,9.719152
2023-04-14T06:27:04.679Z,9.719140
2023-04-14T06:28:06.268Z,9.719078
2023-04-14T06:29:05.277Z,9.719116
2023-04-14T06:30:04.715Z,9.719065
2023-04-14T06:31:07.204Z,9.719058
2023-04-14T06:32:04.723Z,9.719110
2023-04-14T06:33:04.434Z,9.719115
2023-04-14T06:34:05.696Z,9.719222
2023-04-14T06:35:05.283Z,9.719284
2023-04-14T06:36:06.226Z,9.719096
2023-04-14T06:37:05.222Z,9.719139
2023-04-14T06:38:04.185Z,9.719181
2023-04-14T06:39:03.689Z,9.719252
2023-04-14T06:40:03.496Z,9.719183
2023-04-14T06:41:13.194Z,9.719189
2023-04-14T06:42:04.598Z,9.719211
2023-04-14T06:43:04.685Z,9.718956
2023-04-14T06:44:04.649Z,9.719026
2023-04-14T06:45:03.603Z,9.719220
2023-04-14T06:46:05.745Z,9.719247
2023-04-14T06:47:06.702Z,9.719134
2023-04-14T06:48:06.300Z,9.719061
2023-04-14T06:49:06.190Z,9.719310
2023-04-14T06:50:06.271Z,9.719360
2023-04-14T06:51:06.193Z,9.719301
2023-04-14T06:52:08.316Z,9.719308
2023-04-14T06:53:05.704Z,9.719261
2023-04-14T06:54:05.324Z,9.719363
2023-04-14T06:55:04.187Z,9.719528
2023-04-14T06:56:06.179Z,9.719445
2023-04-14T06:57:07.206Z,9.719323
2023-04-14T06:58:05.242Z,9.719412
2023-04-14T06:59:05.414Z,9.719604
2023-04-14T07:00:03.860Z,9.719536
2023-04-14T07:01:04.791Z,9.719449
2023-04-14T07:02:04.767Z,9.719561
2023-04-14T07:03:05.912Z,9.719638
2023-04-14T07:04:06.105Z,9.719569
2023-04-14T07:05:06.797Z,9.719581
2023-04-14T07:06:07.185Z,9.719477
2023-04-14T07:07:07.324Z,9.719431
2023-04-14T07:08:10.016Z,9.719504
2023-04-14T07:09:04.168Z,9.719618
2023-04-14T07:10:04.217Z,9.719653
2023-04-14T07:11:05.190Z,9.719441
2023-04-14T07:12:04.693Z,9.719437
2023-04-14T07:13:04.726Z,9.719584
2023-04-14T07:14:10.692Z,9.719611
2023-04-14T07:15:06.185Z,9.719507
2023-04-14T07:16:07.313Z,9.719286
2023-04-14T07:17:10.714Z,9.719437
2023-04-14T07:18:06.736Z,9.719562
2023-04-14T07:19:03.824Z,9.719621
2023-04-14T07:20:08.268Z,9.719610
2023-04-14T07:21:05.212Z,9.719239
2023-04-14T07:22:03.747Z,9.719490
2023-04-14T07:23:04.713Z,9.719284
2023-04-14T07:24:05.278Z,9.719446
2023-04-14T07:25:06.256Z,9.719542
2023-04-14T07:26:06.777Z,9.719655
2023-04-14T07:27:08.215Z,9.719343
2023-04-14T07:28:04.483Z,9.719283
2023-04-14T07:29:09.421Z,9.719320
2023-04-14T07:30:05.999Z,9.719248
2023-04-14T07:31:04.201Z,9.719289
2023-04-14T07:32:04.681Z,9.719365
2023-04-14T07:33:05.286Z,9.719274
2023-04-14T07:34:03.752Z,9.719279
2023-04-14T07:35:04.686Z,9.719233
2023-04-14T07:36:10.740Z,9.719248
2023-04-14T07:37:06.220Z,9.719326
2023-04-14T07:38:05.180Z,9.719224
2023-04-14T07:39:06.191Z,9.719260
2023-04-14T07:40:20.245Z,9.719249
2023-04-14T07:41:06.184Z,9.719259
2023-04-14T07:42:03.680Z,9.719342
2023-04-14T07:43:03.930Z,9.719367
2023-04-14T07:44:05.714Z,9.719457
2023-04-14T07:45:05.177Z,9.719449
2023-04-14T07:46:03.891Z,9.719440
2023-04-14T07:47:05.673Z,9.719425
2023-04-14T07:48:06.204Z,9.719329
2023-04-14T07:49:06.227Z,9.719105
2023-04-14T07:50:05.820Z,9.719084
2023-04-14T07:51:05.196Z,9.719055
2023-04-14T07:52:05.178Z,9.719149
2023-04-14T07:53:02.774Z,9.719157
2023-04-14T07:54:09.754Z,9.719147
2023-04-14T07:55:03.470Z,9.719137
2023-04-14T07:56:04.000Z,9.719170
2023-04-14T07:57:05.181Z,9.719111
2023-04-14T07:58:04.278Z,9.719213
2023-04-14T07:59:04.782Z,9.719196
2023-04-14T08:00:04.703Z,9.719219
2023-04-14T08:01:04.792Z,9.719306
2023-04-14T08:02:05.929Z,9.719371
2023-04-14T08:03:05.393Z,9.719286
2023-04-14T08:04:07.476Z,9.719226
2023-04-14T08:05:03.710Z,9.719237
2023-04-14T08:06:07.355Z,9.719154
2023-04-14T08:07:06.220Z,9.719234
2023-04-14T08:08:04.341Z,9.719320
2023-04-14T08:09:07.275Z,9.719273
2023-04-14T08:10:10.178Z,9.719217
2023-04-14T08:11:03.686Z,9.719171
2023-04-14T08:12:08.734Z,9.719210
2023-04-14T08:13:07.242Z,9.719275
2023-04-14T08:14:03.688Z,9.719306
2023-04-14T08:15:04.182Z,9.719248
2023-04-14T08:16:05.341Z,9.719259
2023-04-14T08:17:05.679Z,9.719225
2023-04-14T08:18:03.750Z,9.719226
2023-04-14T08:19:04.938Z,9.719204
2023-04-14T08:20:03.739Z,9.719221
2023-04-14T08:21:05.787Z,9.719210
2023-04-14T08:22:07.678Z,9.719208
2023-04-14T08:23:06.182Z,9.719230
2023-04-14T08:24:02.603Z,9.719292
2023-04-14T08:25:05.176Z,9.719273
2023-04-14T08:26:03.183Z,9.719240
2023-04-14T08:27:03.949Z,9.719264
2023-04-14T08:28:17.648Z,9.719260
2023-04-14T08:29:11.174Z,9.719159
2023-04-14T08:30:05.174Z,9.719154
2023-04-14T08:31:03.069Z,9.719193
2023-04-14T08:32:04.324Z,9.719355
2023-04-14T08:33:18.185Z,9.719358
2023-04-14T08:34:04.487Z,9.719331
2023-04-14T08:35:35.328Z,9.719224
2023-04-14T08:36:06.678Z,9.719296
2023-04-14T08:37:02.503Z,9.719232
2023-04-14T08:38:04.196Z,9.719192
2023-04-14T08:39:34.269Z,9.719293
2023-04-14T08:40:03.202Z,9.719222
2023-04-14T08:41:03.701Z,9.719152
2023-04-14T08:42:02.366Z,9.719210
2023-04-14T08:43:03.192Z,9.719414
2023-04-14T08:44:02.255Z,9.719045
2023-04-14T08:45:02.324Z,9.719301
2023-04-14T08:46:02.337Z,9.719309
2023-04-14T08:47:02.268Z,9.719216
2023-04-14T08:48:02.284Z,9.719036
2023-04-14T08:49:02.608Z,9.719121
2023-04-14T08:50:02.235Z,9.719202
2023-04-14T08:51:02.229Z,9.719407
2023-04-14T08:52:02.279Z,9.719373
2023-04-14T08:53:02.172Z,9.719193
2023-04-14T08:54:02.450Z,9.719011
2023-04-14T08:55:02.193Z,9.719180
2023-04-14T08:56:02.198Z,9.719260
2023-04-14T08:57:02.176Z,9.719168
2023-04-14T08:58:02.148Z,9.719430
2023-04-14T08:59:02.134Z,9.719277
2023-04-14T09:00:02.154Z,9.719210
2023-04-14T09:01:02.178Z,9.719258
2023-04-14T09:02:02.188Z,9.719294
2023-04-14T09:03:02.291Z,9.719283
2023-04-14T09:04:02.548Z,9.719264
2023-04-14T09:05:02.266Z,9.719199
2023-04-14T09:06:02.091Z,9.719127
2023-04-14T09:07:02.047Z,9.719197
2023-04-14T09:08:02.065Z,9.719222
2023-04-14T09:09:02.025Z,9.719168
2023-04-14T09:10:02.065Z,9.719181
2023-04-14T09:11:02.059Z,9.719348
2023-04-14T09:12:02.024Z,9.719349
2023-04-14T09:13:01.978Z,9.719186
2023-04-14T09:14:02.131Z,9.719254
2023-04-14T09:15:02.001Z,9.719206
2023-04-14T09:16:02.044Z,9.719215
2023-04-14T09:17:01.985Z,9.719320
2023-04-14T09:18:02.050Z,9.719330
2023-04-14T09:19:07.361Z,9.719237
2023-04-14T09:20:35.463Z,9.719252
2023-04-14T09:21:49.344Z,9.719281
2023-04-14T09:22:02.891Z,9.719265
2023-04-14T09:23:01.872Z,9.719151
2023-04-14T09:24:02.143Z,9.719171
2023-04-14T09:25:01.909Z,9.719097
2023-04-14T09:26:01.872Z,9.719153
2023-04-14T09:27:01.886Z,9.719170
2023-04-14T09:28:01.923Z,9.719279
2023-04-14T09:29:01.993Z,9.719245
2023-04-14T09:30:01.827Z,9.719242
2023-04-14T09:31:01.894Z,9.719088
2023-04-14T09:32:01.856Z,9.719217
2023-04-14T09:33:01.804Z,9.719274
2023-04-14T09:34:02.115Z,9.719177
2023-04-14T09:35:01.794Z,9.719135
2023-04-14T09:36:01.808Z,9.719132
2023-04-14T09:37:01.751Z,9.719225
2023-04-14T09:38:01.783Z,9.719312
2023-04-14T09:39:01.728Z,9.719219
2023-04-14T09:40:01.735Z,9.719181
2023-04-14T09:41:01.772Z,9.719295
2023-04-14T09:42:01.722Z,9.719360
2023-04-14T09:43:01.712Z,9.719243
2023-04-14T09:44:01.719Z,9.719150
2023-04-14T09:45:01.665Z,9.719137
2023-04-14T09:46:01.668Z,9.719234
2023-04-14T09:47:01.689Z,9.719137
2023-04-14T09:48:01.648Z,9.719150
2023-04-14T09:49:01.628Z,9.719193
2023-04-14T09:50:01.621Z,9.719227
2023-04-14T09:51:01.633Z,9.719200
2023-04-14T09:52:01.645Z,9.719050
2023-04-14T09:53:01.611Z,9.719052
2023-04-14T09:54:01.924Z,9.719137
2023-04-14T09:55:01.580Z,9.719180
2023-04-14T09:56:01.585Z,9.719193
2023-04-14T09:57:01.581Z,9.719178
2023-04-14T09:58:01.554Z,9.719111
2023-04-14T09:59:02.162Z,9.719143
2023-04-14T10:00:01.543Z,9.719133
2023-04-14T10:01:01.510Z,9.719095
2023-04-14T10:02:01.679Z,9.719257
2023-04-14T10:03:01.758Z,9.719352
2023-04-14T10:04:01.545Z,9.719316
2023-04-14T10:05:01.471Z,9.719273
2023-04-14T10:06:01.447Z,9.719358
2023-04-14T10:07:01.445Z,9.719367
2023-04-14T10:08:01.498Z,9.719672
2023-04-14T10:09:02.051Z,9.719357
2023-04-14T10:10:01.415Z,9.719116
2023-04-14T10:11:01.425Z,9.719375
2023-04-14T10:12:01.421Z,9.719361
2023-04-14T10:13:01.404Z,9.719508
2023-04-14T10:14:01.403Z,9.719503
2023-04-14T10:15:01.415Z,9.719322
2023-04-14T10:16:01.458Z,9.719254
2023-04-14T10:17:01.386Z,9.719432
2023-04-14T10:18:01.409Z,9.719496
2023-04-14T10:19:01.509Z,9.719489
2023-04-14T10:20:01.337Z,9.719461
2023-04-14T10:21:01.357Z,9.719434
2023-04-14T10:22:01.317Z,9.719366
2023-04-14T10:23:01.275Z,9.719454
2023-04-14T10:24:01.274Z,9.719383
2023-04-14T10:25:02.268Z,9.719334
2023-04-14T10:26:01.258Z,9.719309
2023-04-14T10:27:01.314Z,9.719528
2023-04-14T10:28:01.261Z,9.719481
2023-04-14T10:29:01.539Z,9.719402
2023-04-14T10:30:01.214Z,9.719146
2023-04-14T10:31:01.212Z,9.719020
2023-04-14T10:32:01.340Z,9.719032
2023-04-14T10:33:01.205Z,9.719081
2023-04-14T10:34:01.186Z,9.719111
2023-04-14T10:35:01.190Z,9.718887
2023-04-14T10:36:01.195Z,9.718943
2023-04-14T10:37:01.142Z,9.718844
2023-04-14T10:38:01.144Z,9.718918
2023-04-14T10:39:01.577Z,9.719106
2023-04-14T10:40:01.136Z,9.719248
2023-04-14T10:41:01.118Z,9.719085
2023-04-14T10:42:01.112Z,9.718998
2023-04-14T10:43:01.091Z,9.719004
2023-04-14T10:44:01.073Z,9.719099
2023-04-14T10:45:01.102Z,9.718870
2023-04-14T10:46:01.048Z,9.719065
2023-04-14T10:47:01.098Z,9.719045
2023-04-14T10:48:01.092Z,9.719106
2023-04-14T10:49:01.285Z,9.719151
2023-04-14T10:50:01.019Z,9.719130
2023-04-14T10:51:01.031Z,9.719134
2023-04-14T10:52:01.036Z,9.719152
2023-04-14T10:53:01.034Z,9.719204
2023-04-14T10:54:00.984Z,9.719164
2023-04-14T10:55:00.998Z,9.719134
2023-04-14T10:56:00.984Z,9.719147
2023-04-14T10:57:00.937Z,9.719185
2023-04-14T10:58:00.928Z,9.719162
2023-04-14T10:59:01.219Z,9.719191
2023-04-14T11:00:00.980Z,9.719183
2023-04-14T11:01:00.936Z,9.719133
2023-04-14T11:02:01.078Z,9.719161
2023-04-14T11:03:01.051Z,9.719104
2023-04-14T11:04:00.961Z,9.719116
2023-04-14T11:05:00.852Z,9.719122
2023-04-14T11:06:00.871Z,9.719129
2023-04-14T11:07:00.878Z,9.719145
2023-04-14T11:08:02.642Z,9.719210
2023-04-14T11:09:02.012Z,9.719128
2023-04-14T11:10:00.816Z,9.719112
2023-04-14T11:11:00.844Z,9.719122
2023-04-14T11:12:00.835Z,9.719172
2023-04-14T11:13:00.828Z,9.719123
2023-04-14T11:14:00.804Z,9.719177
2023-04-14T11:15:00.784Z,9.719153
2023-04-14T11:16:00.820Z,9.719105
2023-04-14T11:17:03.692Z,9.719143
2023-04-14T11:18:01.772Z,9.719123
2023-04-14T11:19:00.877Z,9.719105
2023-04-14T11:20:00.775Z,9.719061
2023-04-14T11:21:00.707Z,9.719069
2023-04-14T11:22:00.726Z,9.719153
2023-04-14T11:23:00.716Z,9.719150
2023-04-14T11:24:00.692Z,9.719006
2023-04-14T11:25:00.702Z,9.719151
2023-04-14T11:26:00.658Z,9.719028
2023-04-14T11:27:00.687Z,9.719058
2023-04-14T11:28:00.629Z,9.719078
2023-04-14T11:29:00.807Z,9.719182
2023-04-14T11:30:00.646Z,9.719204
2023-04-14T11:31:00.621Z,9.719057
2023-04-14T11:32:00.740Z,9.718975
2023-04-14T11:33:00.718Z,9.719131
2023-04-14T11:34:00.573Z,9.719206
2023-04-14T11:35:00.600Z,9.719213
2023-04-14T11:36:00.666Z,9.719232
2023-04-14T11:37:00.578Z,9.719249
2023-04-14T11:38:00.573Z,9.719195
2023-04-14T11:39:00.760Z,9.719201
2023-04-14T11:40:00.568Z,9.719007
2023-04-14T11:41:00.543Z,9.719046
2023-04-14T11:42:00.532Z,9.719170
2023-04-14T11:43:00.539Z,9.719250
2023-04-14T11:44:00.521Z,9.719247